createdAt,value
2024-01-21T00:01:00.924Z,-8.69
2024-01-21T00:03:51.996Z,-8.75
2024-01-21T00:06:23.183Z,-8.82
2024-01-21T00:08:54.232Z,-8.92
2024-01-21T00:11:25.409Z,-9.04
2024-01-21T00:13:56.412Z,-9.14
2024-01-21T00:16:27.564Z,-9.21
2024-01-21T00:18:58.678Z,-9.27
2024-01-21T00:21:29.777Z,-9.30
2024-01-21T00:24:01.386Z,-9.32
2024-01-21T00:26:32.885Z,-9.34
2024-01-21T00:29:04.198Z,-9.36
2024-01-21T00:31:35.641Z,-9.37
2024-01-21T00:34:07.011Z,-9.38
2024-01-21T00:36:38.101Z,-9.40
2024-01-21T00:39:09.827Z,-9.42
2024-01-21T00:41:44.930Z,-9.45
2024-01-21T00:44:21.420Z,-9.49
2024-01-21T00:46:53.037Z,-9.51
2024-01-21T00:49:24.135Z,-9.54
2024-01-21T00:51:55.269Z,-9.59
2024-01-21T00:54:26.446Z,-9.64
2024-01-21T00:56:57.911Z,-9.70
2024-01-21T00:59:29.100Z,-9.75
2024-01-21T01:02:00.112Z,-9.77
2024-01-21T01:04:31.129Z,-9.80
2024-01-21T01:07:02.253Z,-9.82
2024-01-21T01:09:33.384Z,-9.85
2024-01-21T01:12:05.416Z,-9.87
2024-01-21T01:14:36.656Z,-9.92
2024-01-21T01:17:08.147Z,-9.96
2024-01-21T01:19:39.923Z,-9.99
2024-01-21T01:22:13.530Z,-10.03
2024-01-21T01:24:45.165Z,-10.10
2024-01-21T01:27:16.418Z,-10.18
2024-01-21T01:29:47.798Z,-10.24
2024-01-21T01:32:18.909Z,-10.26
2024-01-21T01:34:50.999Z,-10.28
2024-01-21T01:37:22.264Z,-10.33
2024-01-21T01:39:53.516Z,-10.36
2024-01-21T01:42:24.672Z,-10.38
2024-01-21T01:44:55.818Z,-10.40
2024-01-21T01:47:28.023Z,-10.44
2024-01-21T01:50:00.568Z,-10.48
2024-01-21T01:52:33.782Z,-10.50
2024-01-21T01:55:05.409Z,-10.53
2024-01-21T01:57:37.255Z,-10.56
2024-01-21T02:00:10.017Z,-10.63
2024-01-21T02:02:41.709Z,-10.68
2024-01-21T02:05:14.039Z,-10.70
2024-01-21T02:07:45.428Z,-10.71
2024-01-21T02:10:16.758Z,-10.74
2024-01-21T02:12:49.012Z,-10.77
2024-01-21T02:15:20.581Z,-10.79
2024-01-21T02:17:52.066Z,-10.81
2024-01-21T02:20:24.302Z,-10.83
2024-01-21T02:23:00.740Z,-10.84
2024-01-21T02:25:32.609Z,-10.84
2024-01-21T02:28:04.256Z,-10.84
2024-01-21T02:30:42.246Z,-10.87
2024-01-21T02:33:14.727Z,-10.88
2024-01-21T02:35:46.498Z,-10.91
2024-01-21T02:38:17.721Z,-10.96
2024-01-21T02:40:48.960Z,-11.02
2024-01-21T02:43:20.057Z,-11.08
2024-01-21T02:45:51.809Z,-11.14
2024-01-21T02:48:23.182Z,-11.18
2024-01-21T02:50:54.428Z,-11.20
2024-01-21T02:53:25.576Z,-11.21
2024-01-21T02:55:56.574Z,-11.21
2024-01-21T02:58:27.907Z,-11.22
2024-01-21T03:00:59.451Z,-11.24
2024-01-21T03:03:30.688Z,-11.25
2024-01-21T03:06:01.816Z,-11.26
2024-01-21T03:08:33.315Z,-11.28
2024-01-21T03:11:04.505Z,-11.29
2024-01-21T03:13:35.660Z,-11.31
2024-01-21T03:16:07.529Z,-11.31
2024-01-21T03:18:40.383Z,-11.31
2024-01-21T03:21:11.800Z,-11.33
2024-01-21T03:23:42.981Z,-11.39
2024-01-21T03:26:14.343Z,-11.52
2024-01-21T03:28:45.653Z,-11.59
2024-01-21T03:31:19.649Z,-11.60
2024-01-21T03:33:51.121Z,-11.56
2024-01-21T03:36:22.294Z,-11.52
2024-01-21T03:38:53.459Z,-11.48
2024-01-21T03:41:24.657Z,-11.46
2024-01-21T03:43:55.799Z,-11.45
2024-01-21T03:46:27.862Z,-11.43
2024-01-21T03:48:59.166Z,-11.43
2024-01-21T03:51:30.196Z,-11.40
2024-01-21T03:54:01.311Z,-11.40
2024-01-21T03:56:33.283Z,-11.42
2024-01-21T03:59:04.430Z,-11.43
2024-01-21T04:01:35.572Z,-11.43
2024-01-21T04:04:07.596Z,-11.43
2024-01-21T04:06:43.750Z,-11.43
2024-01-21T04:09:16.438Z,-11.44
2024-01-21T04:11:48.015Z,-11.47
2024-01-21T04:14:19.436Z,-11.49
2024-01-21T04:16:50.610Z,-11.55
2024-01-21T04:19:22.649Z,-11.59
2024-01-21T04:21:54.025Z,-11.61
2024-01-21T04:24:25.485Z,-11.67
2024-01-21T04:26:56.826Z,-11.75
2024-01-21T04:29:27.981Z,-11.78
2024-01-21T04:31:59.096Z,-11.80
2024-01-21T04:34:30.361Z,-11.82
2024-01-21T04:37:02.511Z,-11.83
2024-01-21T04:39:33.775Z,-11.84
2024-01-21T04:42:05.380Z,-11.84
2024-01-21T04:44:36.539Z,-11.83
2024-01-21T04:47:08.015Z,-11.87
2024-01-21T04:49:39.449Z,-11.95
2024-01-21T04:52:10.791Z,-12.01
2024-01-21T04:54:42.039Z,-12.03
2024-01-21T04:57:13.367Z,-12.05
2024-01-21T04:59:44.671Z,-12.06
2024-01-21T05:02:16.131Z,-12.07
2024-01-21T05:04:47.489Z,-12.08
2024-01-21T05:07:18.809Z,-12.08
2024-01-21T05:09:50.331Z,-12.07
2024-01-21T05:12:21.425Z,-12.06
2024-01-21T05:14:53.119Z,-12.06
2024-01-21T05:17:24.252Z,-12.05
2024-01-21T05:19:55.457Z,-12.07
2024-01-21T05:22:26.645Z,-12.09
2024-01-21T05:24:57.755Z,-12.12
2024-01-21T05:27:29.097Z,-12.14
2024-01-21T05:30:00.356Z,-12.15
2024-01-21T05:32:33.347Z,-12.13
2024-01-21T05:35:04.850Z,-12.12
2024-01-21T05:37:36.259Z,-12.10
2024-01-21T05:40:08.943Z,-12.12
2024-01-21T05:42:40.097Z,-12.17
2024-01-21T05:45:12.669Z,-12.26
2024-01-21T05:47:43.842Z,-12.29
2024-01-21T05:50:15.363Z,-12.33
2024-01-21T05:52:46.591Z,-12.39
2024-01-21T05:55:17.808Z,-12.41
2024-01-21T05:57:49.205Z,-12.41
2024-01-21T06:00:21.423Z,-12.40
2024-01-21T06:02:51.018Z,-12.39
2024-01-21T06:05:23.443Z,-12.37
2024-01-21T06:07:54.684Z,-12.35
2024-01-21T06:10:25.750Z,-12.33
2024-01-21T06:12:57.026Z,-12.32
2024-01-21T06:15:28.386Z,-12.30
2024-01-21T06:17:59.946Z,-12.34
2024-01-21T06:20:31.672Z,-12.39
2024-01-21T06:23:02.711Z,-12.44
2024-01-21T06:25:33.872Z,-12.47
2024-01-21T06:28:05.417Z,-12.48
2024-01-21T06:30:36.521Z,-12.49
2024-01-21T06:33:07.951Z,-12.51
2024-01-21T06:35:39.018Z,-12.51
2024-01-21T06:38:10.616Z,-12.52
2024-01-21T06:40:41.809Z,-12.51
2024-01-21T06:43:13.032Z,-12.47
2024-01-21T06:45:44.153Z,-12.47
2024-01-21T06:48:15.614Z,-12.48
2024-01-21T06:50:49.784Z,-12.47
2024-01-21T06:53:20.983Z,-12.49
2024-01-21T06:55:52.141Z,-12.50
2024-01-21T06:58:23.227Z,-12.52
2024-01-21T07:00:54.447Z,-12.54
2024-01-21T07:03:25.597Z,-12.55
2024-01-21T07:05:56.947Z,-12.55
2024-01-21T07:08:28.588Z,-12.55
2024-01-21T07:10:59.646Z,-12.54
2024-01-21T07:13:30.859Z,-12.55
2024-01-21T07:16:02.482Z,-12.53
2024-01-21T07:18:33.685Z,-12.54
2024-01-21T07:21:05.038Z,-12.55
2024-01-21T07:23:39.152Z,-12.54
2024-01-21T07:26:10.401Z,-12.52
2024-01-21T07:28:41.403Z,-12.50
2024-01-21T07:31:12.577Z,-12.48
2024-01-21T07:33:43.836Z,-12.47
2024-01-21T07:36:17.409Z,-12.46
2024-01-21T07:38:48.491Z,-12.51
2024-01-21T07:41:19.680Z,-12.55
2024-01-21T07:43:50.807Z,-12.53
2024-01-21T07:46:22.001Z,-12.51
2024-01-21T07:48:55.837Z,-12.46
2024-01-21T07:51:27.185Z,-12.40
2024-01-21T07:53:58.522Z,-12.35
2024-01-21T07:56:29.720Z,-12.31
2024-01-21T07:59:00.779Z,-12.24
2024-01-21T08:01:32.245Z,-12.18
2024-01-21T08:04:03.954Z,-12.15
2024-01-21T08:06:35.331Z,-12.09
2024-01-21T08:09:06.628Z,-12.03
2024-01-21T08:11:37.787Z,-11.97
2024-01-21T08:14:08.871Z,-11.93
2024-01-21T08:16:40.340Z,-11.88
2024-01-21T08:19:11.596Z,-11.83
2024-01-21T08:21:43.418Z,-11.78
2024-01-21T08:24:14.496Z,-11.70
2024-01-21T08:26:48.313Z,-11.62
2024-01-21T08:29:19.421Z,-11.53
2024-01-21T08:31:50.683Z,-11.45
2024-01-21T08:34:22.021Z,-11.37
2024-01-21T08:36:53.373Z,-11.32
2024-01-21T08:39:24.856Z,-11.28
2024-01-21T08:41:56.548Z,-11.19
2024-01-21T08:44:27.739Z,-11.12
2024-01-21T08:47:00.327Z,-11.05
2024-01-21T08:49:33.322Z,-10.98
2024-01-21T08:52:04.875Z,-10.90
2024-01-21T08:54:36.328Z,-10.81
2024-01-21T08:57:07.954Z,-10.72
2024-01-21T08:59:38.062Z,-10.62
2024-01-21T09:02:09.816Z,-10.52
2024-01-21T09:04:43.290Z,-10.41
2024-01-21T09:07:15.558Z,-10.30
2024-01-21T09:09:46.850Z,-10.17
2024-01-21T09:12:19.013Z,-10.05
2024-01-21T09:14:49.993Z,-9.94
2024-01-21T09:17:21.077Z,-9.82
2024-01-21T09:19:52.339Z,-9.69
2024-01-21T09:22:23.595Z,-9.56
2024-01-21T09:24:55.163Z,-9.42
2024-01-21T09:27:26.534Z,-9.30
2024-01-21T09:29:57.844Z,-9.17
2024-01-21T09:32:29.496Z,-9.05
2024-01-21T09:35:00.779Z,-8.89
2024-01-21T09:37:34.074Z,-8.73
2024-01-21T09:40:05.909Z,-8.57
2024-01-21T09:42:35.415Z,-8.41
2024-01-21T09:45:08.287Z,-8.24
2024-01-21T09:47:41.272Z,-8.06
2024-01-21T09:50:15.108Z,-7.88
2024-01-21T09:52:46.319Z,-7.70
2024-01-21T09:55:17.433Z,-7.52
2024-01-21T09:57:48.585Z,-7.34
2024-01-21T10:00:20.928Z,-7.16
2024-01-21T10:02:53.593Z,-6.98
2024-01-21T10:05:24.741Z,-6.81
2024-01-21T10:07:56.312Z,-6.65
2024-01-21T10:10:28.628Z,-6.46
2024-01-21T10:12:59.799Z,-6.29
2024-01-21T10:15:32.844Z,-6.11
2024-01-21T10:18:04.236Z,-5.93
2024-01-21T10:20:37.675Z,-5.74
2024-01-21T10:23:13.704Z,-5.55
2024-01-21T10:25:48.840Z,-5.38
2024-01-21T10:28:20.172Z,-5.20
2024-01-21T10:30:51.294Z,-5.03
2024-01-21T10:33:22.706Z,-4.85
2024-01-21T10:35:55.626Z,-4.67
2024-01-21T10:38:30.909Z,-4.49
2024-01-21T10:41:03.263Z,-4.31
2024-01-21T10:43:37.448Z,-4.12
2024-01-21T10:46:12.069Z,-3.93
2024-01-21T10:48:44.431Z,-3.71
2024-01-21T10:51:16.621Z,-3.51
2024-01-21T10:53:48.474Z,-3.30
2024-01-21T10:56:20.470Z,-3.10
2024-01-21T10:58:52.209Z,-2.89
2024-01-21T11:01:25.832Z,-2.73
2024-01-21T11:04:08.889Z,-2.55
2024-01-21T11:06:43.031Z,-2.39
2024-01-21T11:09:17.791Z,-2.24
2024-01-21T11:11:55.062Z,-2.08
2024-01-21T11:14:35.923Z,-1.93
2024-01-21T11:17:09.141Z,-1.79
2024-01-21T11:19:52.624Z,-1.65
2024-01-21T11:22:25.717Z,-1.52
2024-01-21T11:24:58.042Z,-1.40
2024-01-21T11:27:30.672Z,-1.25
2024-01-21T11:30:03.048Z,-1.12
2024-01-21T11:32:34.298Z,-0.98
2024-01-21T11:35:15.051Z,-0.89
2024-01-21T11:37:53.507Z,-0.80
2024-01-21T11:40:25.377Z,-0.72
2024-01-21T11:42:56.949Z,-0.62
2024-01-21T11:45:26.831Z,-0.54
2024-01-21T11:48:01.411Z,-0.48
2024-01-21T11:50:34.473Z,-0.41
2024-01-21T11:53:06.576Z,-0.34
2024-01-21T11:55:37.595Z,-0.30
2024-01-21T11:58:08.936Z,-0.25
2024-01-21T12:00:40.237Z,-0.19
2024-01-21T12:03:11.362Z,-0.12
2024-01-21T12:05:44.078Z,-0.09
2024-01-21T12:08:15.380Z,-0.08
2024-01-21T12:10:48.041Z,-0.03
2024-01-21T12:13:19.111Z,0.02
2024-01-21T12:15:53.751Z,-0.00
2024-01-21T12:18:26.005Z,-0.00
2024-01-21T12:20:57.383Z,0.02
2024-01-21T12:23:28.460Z,-0.03
2024-01-21T12:25:59.639Z,-0.12
2024-01-21T12:28:30.744Z,-0.17
2024-01-21T12:31:02.219Z,-0.18
2024-01-21T12:33:31.892Z,-0.14
2024-01-21T12:36:03.132Z,-0.12
2024-01-21T12:38:34.917Z,-0.05
2024-01-21T12:41:07.537Z,0.01
2024-01-21T12:43:38.978Z,0.04
2024-01-21T12:46:10.221Z,-0.00
2024-01-21T12:48:39.837Z,-0.07
2024-01-21T12:51:11.447Z,-0.16
2024-01-21T12:53:42.620Z,-0.21
2024-01-21T12:56:13.688Z,-0.24
2024-01-21T12:58:44.957Z,-0.26
2024-01-21T13:01:17.416Z,-0.22
2024-01-21T13:03:50.110Z,-0.19
2024-01-21T13:06:22.052Z,-0.18
2024-01-21T13:08:53.707Z,-0.16
2024-01-21T13:11:25.298Z,-0.14
2024-01-21T13:13:56.316Z,-0.13
2024-01-21T13:16:27.483Z,-0.14
2024-01-21T13:18:58.774Z,-0.15
2024-01-21T13:21:28.427Z,-0.14
2024-01-21T13:23:59.637Z,-0.10
2024-01-21T13:26:31.099Z,-0.08
2024-01-21T13:29:25.603Z,-0.16
2024-01-21T13:31:56.899Z,-0.36
2024-01-21T13:34:28.427Z,-0.52
2024-01-21T13:36:59.938Z,-0.61
2024-01-21T13:39:31.052Z,-0.69
2024-01-21T13:42:02.382Z,-0.75
2024-01-21T13:44:35.284Z,-0.79
2024-01-21T13:47:07.109Z,-0.80
2024-01-21T13:49:38.497Z,-0.79
2024-01-21T13:52:14.797Z,-0.75
2024-01-21T13:54:46.084Z,-0.75
2024-01-21T13:57:17.944Z,-0.77
2024-01-21T13:59:49.139Z,-0.81
2024-01-21T14:02:20.609Z,-0.87
2024-01-21T14:04:50.552Z,-0.90
2024-01-21T14:07:22.044Z,-0.92
2024-01-21T14:09:53.648Z,-0.96
2024-01-21T14:12:23.437Z,-1.02
2024-01-21T14:14:55.679Z,-1.11
2024-01-21T14:17:27.934Z,-1.16
2024-01-21T14:19:59.285Z,-1.18
2024-01-21T14:22:30.764Z,-1.20
2024-01-21T14:25:07.400Z,-1.22
2024-01-21T14:27:38.752Z,-1.26
2024-01-21T14:30:17.847Z,-1.30
2024-01-21T14:32:48.992Z,-1.38
2024-01-21T14:35:20.039Z,-1.43
2024-01-21T14:37:51.105Z,-1.46
2024-01-21T14:40:24.594Z,-1.49
2024-01-21T14:42:56.095Z,-1.53
2024-01-21T14:45:27.355Z,-1.55
2024-01-21T14:47:59.046Z,-1.57
2024-01-21T14:50:31.015Z,-1.57
2024-01-21T14:53:02.458Z,-1.60
2024-01-21T14:55:33.650Z,-1.61
2024-01-21T14:58:05.041Z,-1.62
2024-01-21T15:00:41.324Z,-1.63
2024-01-21T15:03:12.556Z,-1.63
2024-01-21T15:05:45.537Z,-1.65
2024-01-21T15:08:17.229Z,-1.67
2024-01-21T15:10:48.704Z,-1.71
2024-01-21T15:13:24.730Z,-1.76
2024-01-21T15:15:56.028Z,-1.81
2024-01-21T15:18:34.452Z,-1.85
2024-01-21T15:21:06.654Z,-1.89
2024-01-21T15:23:37.629Z,-1.96
2024-01-21T15:26:08.808Z,-2.01
2024-01-21T15:28:40.155Z,-2.04
2024-01-21T15:31:11.549Z,-2.08
2024-01-21T15:33:42.716Z,-2.12
2024-01-21T15:36:14.376Z,-2.17
2024-01-21T15:38:45.530Z,-2.23
2024-01-21T15:41:17.076Z,-2.26
2024-01-21T15:43:46.832Z,-2.29
2024-01-21T15:46:18.098Z,-2.32
2024-01-21T15:48:49.405Z,-2.37
2024-01-21T15:51:22.487Z,-2.42
2024-01-21T15:53:53.697Z,-2.45
2024-01-21T15:56:24.863Z,-2.50
2024-01-21T15:58:56.061Z,-2.53
2024-01-21T16:01:27.410Z,-2.56
2024-01-21T16:03:59.605Z,-2.58
2024-01-21T16:06:31.117Z,-2.60
2024-01-21T16:09:05.400Z,-2.63
2024-01-21T16:11:36.481Z,-2.66
2024-01-21T16:14:08.052Z,-2.68
2024-01-21T16:16:40.135Z,-2.71
2024-01-21T16:19:11.691Z,-2.73
2024-01-21T16:21:42.998Z,-2.76
2024-01-21T16:24:14.765Z,-2.79
2024-01-21T16:26:46.069Z,-2.80
2024-01-21T16:29:15.981Z,-2.82
2024-01-21T16:31:47.505Z,-2.85
2024-01-21T16:34:18.850Z,-2.88
2024-01-21T16:36:50.062Z,-2.88
2024-01-21T16:39:22.037Z,-2.90
2024-01-21T16:41:53.376Z,-2.93
2024-01-21T16:44:25.082Z,-2.97
2024-01-21T16:46:56.147Z,-2.99
2024-01-21T16:49:28.043Z,-3.01
2024-01-21T16:52:06.306Z,-3.06
2024-01-21T16:54:37.358Z,-3.10
2024-01-21T16:57:08.621Z,-3.13
2024-01-21T16:59:43.327Z,-3.18
2024-01-21T17:02:20.895Z,-3.22
2024-01-21T17:04:52.494Z,-3.28
2024-01-21T17:07:23.622Z,-3.32
2024-01-21T17:10:00.493Z,-3.38
2024-01-21T17:12:39.924Z,-3.45
2024-01-21T17:15:12.862Z,-3.50
2024-01-21T17:17:50.453Z,-3.57
2024-01-21T17:20:21.611Z,-3.63
2024-01-21T17:22:52.860Z,-3.70
2024-01-21T17:25:25.600Z,-3.76
2024-01-21T17:27:56.905Z,-3.80
2024-01-21T17:30:28.015Z,-3.85
2024-01-21T17:32:59.208Z,-3.89
2024-01-21T17:35:31.446Z,-3.94
2024-01-21T17:38:02.564Z,-4.01
2024-01-21T17:40:33.663Z,-4.08
2024-01-21T17:43:05.476Z,-4.13
2024-01-21T17:45:36.854Z,-4.19
2024-01-21T17:48:09.110Z,-4.23
2024-01-21T17:50:41.084Z,-4.31
2024-01-21T17:53:12.773Z,-4.37
2024-01-21T17:55:44.399Z,-4.45
2024-01-21T17:58:13.992Z,-4.52
2024-01-21T18:00:45.656Z,-4.61
2024-01-21T18:03:16.848Z,-4.73
2024-01-21T18:05:48.076Z,-4.81
2024-01-21T18:08:19.267Z,-4.89
2024-01-21T18:10:50.417Z,-4.98
2024-01-21T18:13:21.384Z,-5.06
2024-01-21T18:15:52.575Z,-5.13
2024-01-21T18:18:24.873Z,-5.18
2024-01-21T18:20:57.289Z,-5.24
2024-01-21T18:23:29.867Z,-5.29
2024-01-21T18:26:00.995Z,-5.36
2024-01-21T18:28:32.482Z,-5.44
2024-01-21T18:31:04.089Z,-5.50
2024-01-21T18:33:35.787Z,-5.57
2024-01-21T18:36:07.493Z,-5.62
2024-01-21T18:38:37.070Z,-5.70
2024-01-21T18:41:08.127Z,-5.79
2024-01-21T18:43:39.193Z,-5.89
2024-01-21T18:46:10.279Z,-6.00
2024-01-21T18:48:41.617Z,-6.09
2024-01-21T18:51:15.564Z,-6.15
2024-01-21T18:53:46.705Z,-6.21
2024-01-21T18:56:25.848Z,-6.24
2024-01-21T18:58:57.368Z,-6.26
2024-01-21T19:01:28.414Z,-6.29
2024-01-21T19:04:00.011Z,-6.36
2024-01-21T19:06:31.396Z,-6.43
2024-01-21T19:09:02.600Z,-6.47
2024-01-21T19:11:34.124Z,-6.52
2024-01-21T19:14:05.144Z,-6.58
2024-01-21T19:16:36.333Z,-6.64
2024-01-21T19:19:13.222Z,-6.70
2024-01-21T19:21:44.487Z,-6.75
2024-01-21T19:24:16.467Z,-6.78
2024-01-21T19:26:48.219Z,-6.84
2024-01-21T19:29:18.428Z,-6.92
2024-01-21T19:31:50.151Z,-7.02
2024-01-21T19:34:21.173Z,-7.09
2024-01-21T19:36:53.494Z,-7.17
2024-01-21T19:39:24.786Z,-7.23
2024-01-21T19:41:56.115Z,-7.27
2024-01-21T19:44:27.754Z,-7.29
2024-01-21T19:46:58.846Z,-7.33
2024-01-21T19:49:30.359Z,-7.36
2024-01-21T19:52:01.576Z,-7.41
2024-01-21T19:54:36.170Z,-7.44
2024-01-21T19:57:08.269Z,-7.49
2024-01-21T19:59:39.562Z,-7.56
2024-01-21T20:02:12.973Z,-7.57
2024-01-21T20:04:44.123Z,-7.62
2024-01-21T20:07:17.280Z,-7.68
2024-01-21T20:09:48.489Z,-7.74
2024-01-21T20:12:19.608Z,-7.83
2024-01-21T20:14:51.097Z,-7.92
2024-01-21T20:17:22.058Z,-7.96
2024-01-21T20:19:53.179Z,-7.99
2024-01-21T20:22:24.432Z,-8.02
2024-01-21T20:24:56.168Z,-8.05
2024-01-21T20:27:27.256Z,-8.09
2024-01-21T20:29:59.715Z,-8.10
2024-01-21T20:32:30.910Z,-8.12
2024-01-21T20:35:02.865Z,-8.14
2024-01-21T20:37:35.385Z,-8.17
2024-01-21T20:40:08.059Z,-8.24
2024-01-21T20:42:39.308Z,-8.33
2024-01-21T20:45:11.626Z,-8.42
2024-01-21T20:47:42.923Z,-8.49
2024-01-21T20:50:14.270Z,-8.57
2024-01-21T20:52:45.253Z,-8.65
2024-01-21T20:55:16.870Z,-8.67
2024-01-21T20:57:48.302Z,-8.66
2024-01-21T21:00:21.027Z,-8.66
2024-01-21T21:02:52.215Z,-8.65
2024-01-21T21:05:29.031Z,-8.63
2024-01-21T21:08:00.955Z,-8.61
2024-01-21T21:10:32.006Z,-8.62
2024-01-21T21:13:03.193Z,-8.63
2024-01-21T21:15:35.892Z,-8.64
2024-01-21T21:18:07.337Z,-8.65
2024-01-21T21:20:38.715Z,-8.67
2024-01-21T21:23:09.838Z,-8.65
2024-01-21T21:25:40.917Z,-8.62
2024-01-21T21:28:12.254Z,-8.62
2024-01-21T21:30:43.382Z,-8.63
2024-01-21T21:33:14.554Z,-8.70
2024-01-21T21:35:47.224Z,-8.72
2024-01-21T21:38:19.146Z,-8.75
2024-01-21T21:40:50.691Z,-8.74
2024-01-21T21:43:22.012Z,-8.78
2024-01-21T21:45:53.074Z,-8.81
2024-01-21T21:48:24.767Z,-8.82
2024-01-21T21:50:56.122Z,-8.83
2024-01-21T21:53:27.480Z,-8.84
2024-01-21T21:55:58.913Z,-8.85
2024-01-21T21:58:30.829Z,-8.86
2024-01-21T22:01:02.310Z,-8.90
2024-01-21T22:03:33.457Z,-8.95
2024-01-21T22:06:09.124Z,-8.98
2024-01-21T22:08:40.674Z,-9.00
2024-01-21T22:11:11.592Z,-9.02
2024-01-21T22:13:42.949Z,-9.04
2024-01-21T22:16:14.333Z,-9.09
2024-01-21T22:18:46.018Z,-9.12
2024-01-21T22:21:22.462Z,-9.16
2024-01-21T22:23:53.620Z,-9.20
2024-01-21T22:26:24.702Z,-9.21
2024-01-21T22:28:55.784Z,-9.22
2024-01-21T22:31:26.855Z,-9.23
2024-01-21T22:33:58.104Z,-9.23
2024-01-21T22:36:29.199Z,-9.25
2024-01-21T22:39:00.544Z,-9.23
2024-01-21T22:41:32.140Z,-9.23
2024-01-21T22:44:03.622Z,-9.24
2024-01-21T22:46:34.839Z,-9.26
2024-01-21T22:49:06.462Z,-9.27
2024-01-21T22:51:37.751Z,-9.28
2024-01-21T22:54:09.115Z,-9.28
2024-01-21T22:56:40.340Z,-9.31
2024-01-21T22:59:11.404Z,-9.33
2024-01-21T23:01:43.203Z,-9.32
2024-01-21T23:04:14.319Z,-9.31
2024-01-21T23:06:45.747Z,-9.31
2024-01-21T23:09:17.114Z,-9.30
2024-01-21T23:11:48.262Z,-9.31
2024-01-21T23:14:19.267Z,-9.30
2024-01-21T23:16:50.400Z,-9.32
2024-01-21T23:19:21.629Z,-9.33
2024-01-21T23:21:52.740Z,-9.31
2024-01-21T23:24:24.060Z,-9.30
2024-01-21T23:26:55.374Z,-9.31
2024-01-21T23:29:26.546Z,-9.32
2024-01-21T23:31:58.066Z,-9.37
2024-01-21T23:34:29.245Z,-9.39
2024-01-21T23:37:00.522Z,-9.38
2024-01-21T23:39:31.963Z,-9.39
2024-01-21T23:42:03.240Z,-9.42
2024-01-21T23:44:34.417Z,-9.43
2024-01-21T23:47:05.758Z,-9.50
2024-01-21T23:49:36.860Z,-9.61
2024-01-21T23:52:09.282Z,-9.64
2024-01-21T23:54:42.509Z,-9.63
2024-01-21T23:57:13.824Z,-9.63
2024-01-21T23:59:46.661Z,-9.65
